Historyczne dane pomiarowe

Dodano dane terminowe – wersja testowa.

Dane z okresu 1951-2019

Wersja bazy: 1.34 [2019-03-16, lista zmian], aktualizacja planowana na 2019-04-15

Dane meteo z obszaru Polski uzyskane na podstawie danych udostępnionych przez Instytut Meteorologii i Gospodarki Wodnej – Państwowy Instytut Badawczy.

 

Wybierz Datę:    

       

TemperaturaWilgotnośćZachmurzenieWiatrCiśnienieWidzialnośćZjawiska
 Data    tng td wb rh cc ccl cl cm ch dir g1 g2 mslp ppp      
1999-08-09 00:00:00 19.2--- 17.5 18.190wxwxwx3wx--1005.0 981.1 0.0---wx
1999-08-09 01:00:00 18.7--- 17.3 17.892wxwxwx3wx--1005.2 981.3----wx
1999-08-09 02:00:00 18.2--- 17.0 17.492wxwxwx2wx--1004.9 981.0----wx
1999-08-09 03:00:00 18.2--- 16.8 17.392wxwxwxwx2wx--1005.5 981.5----wx
1999-08-09 04:00:00 18.2--- 17.0 17.492wxwxwx1wx--1006.2 982.2----wx
1999-08-09 05:00:00 19.2--- 17.8 18.392wxwx0wx--1006.8 982.9----wx
1999-08-09 06:00:00 21.6--- 18.9 19.885wxwx1wx--1006.6 982.9 0.0---wx
1999-08-09 07:00:00 23.8--- 19.2 20.776wxwx1wx--1007.1 983.6----wx
1999-08-09 08:00:00 25.9--- 14.9 18.951wxwxwx2wx--1007.3 983.9----wx
1999-08-09 09:00:00 26.6--- 15.8 19.652wxwxwxwx1wx--1007.2 983.9----wx
1999-08-09 10:00:00 27.4--- 16.4 20.251wxwxwxwx1wx--1007.2 983.9----wx
1999-08-09 11:00:00 28.2--- 17.2 20.951wxwxwxwxwx2wx--1006.8 983.6----wx
1999-08-09 12:00:00 29.0--- 16.9 21.048wxwxwxwxwx2wx--1006.7 983.6 0.0---wx
1999-08-09 13:00:00 28.1--- 15.4 19.946wxwxwxwxwx3wx--1006.6 983.4----wx
1999-08-09 14:00:00 27.3--- 16.1 20.050wxwxwxwx3wx--1007.1 983.8----wx
1999-08-09 15:00:00 24.3--- 15.7 18.859wxwxwxwx8wx--1007.8 984.3----wxw1
1999-08-09 16:00:00 24.0--- 15.7 18.760wxwxwxwx7wx--1008.9 985.3----wx
1999-08-09 17:00:00 21.8--- 16.0 18.170wxwxwxwx3wx--1008.1 984.4----wxw1
1999-08-09 18:00:00 21.8--- 16.2 18.270wxwxwx0wx--1008.5 984.8 0.0---wxw1
1999-08-09 19:00:00 19.2--- 16.4 17.484wxwxwx1wx--1009.3 985.3----wx
1999-08-09 20:00:00 17.4--- 15.5 16.288wxwx0wx--1009.4 985.3----wx
1999-08-09 21:00:00 16.8--- 15.5 16.092wxwx0wx--1008.7 984.6----wx
1999-08-09 22:00:00 16.2--- 15.2 15.694wxwxwx1wx--1008.7 984.5----wx
1999-08-09 23:00:00 16.2--- 15.6 15.896wxwxwx0wx--1009.0 984.8----wx

 

Źródłem pochodzenia danych jest Instytut Meteorologii i Gospodarki Wodnej – Państwowy Instytut Badawczy. Dane Instytutu Meteorologii i Gospodarki Wodnej – Państwowego Instytutu Badawczego zostały przetworzone.

Dane źródłowe można odnaleźć na stronie https://dane.imgw.pl